Time,TemperatureF,DewpointF,PressureIn,WindDirection,WindDirectionDegrees,WindSpeedMPH,WindSpeedGustMPH,Humidity,HourlyPrecipIn,Conditions,Clouds,dailyrainin,SoftwareType,DateUTC
2013-03-29 00:01:00,53.0,51.0,30.10,NNW,338,0.0,0.0,92,0.00,,,0.08,,2013-03-29 07:01:00,
2013-03-29 00:11:00,53.0,51.0,30.10,NNW,338,0.0,0.0,92,0.00,,,0.08,,2013-03-29 07:11:00,
2013-03-29 00:21:00,53.0,51.0,30.10,NNW,338,0.0,0.0,92,0.00,,,0.08,,2013-03-29 07:21:00,
2013-03-29 00:32:00,53.0,51.0,30.11,NNW,338,0.0,0.0,92,0.00,,,0.08,,2013-03-29 07:32:00,
2013-03-29 00:41:00,53.0,51.0,30.11,NNW,338,0.0,0.0,92,0.00,,,0.08,,2013-03-29 07:41:00,
2013-03-29 00:52:00,53.0,51.0,30.10,NNW,338,0.0,0.0,92,0.00,,,0.08,,2013-03-29 07:52:00,
2013-03-29 01:01:00,53.0,51.0,30.11,NNW,338,0.0,0.0,92,0.00,,,0.08,,2013-03-29 08:01:00,
2013-03-29 01:11:00,53.0,51.0,30.11,NNW,338,0.0,0.0,92,0.00,,,0.08,,2013-03-29 08:11:00,
2013-03-29 01:22:00,53.0,51.0,30.11,NNW,338,0.0,0.0,92,0.00,,,0.08,,2013-03-29 08:22:00,
2013-03-29 01:31:00,53.0,51.0,30.11,NNW,338,0.0,0.0,92,0.00,,,0.08,,2013-03-29 08:31:00,
2013-03-29 01:42:00,53.0,51.0,30.11,NNW,338,0.0,0.0,92,0.00,,,0.08,,2013-03-29 08:42:00,
2013-03-29 01:52:00,53.0,51.0,30.11,NNW,338,0.0,0.0,92,0.00,,,0.08,,2013-03-29 08:52:00,
2013-03-29 02:01:00,53.0,51.0,30.11,NNW,338,0.0,0.0,93,0.00,,,0.08,,2013-03-29 09:01:00,
2013-03-29 02:12:00,53.0,51.0,30.11,NNW,338,0.0,0.0,93,0.00,,,0.08,,2013-03-29 09:12:00,
2013-03-29 02:21:00,52.0,50.0,30.11,NNW,338,0.0,0.0,93,0.00,,,0.08,,2013-03-29 09:21:00,
2013-03-29 02:32:00,52.0,50.0,30.11,NNW,338,0.0,0.0,94,0.00,,,0.08,,2013-03-29 09:32:00,
2013-03-29 02:42:00,52.0,50.0,30.11,NNW,338,0.0,0.0,94,0.00,,,0.08,,2013-03-29 09:42:00,
2013-03-29 02:52:00,52.0,50.0,30.11,NNW,338,0.0,0.0,94,0.00,,,0.08,,2013-03-29 09:52:00,
2013-03-29 03:02:00,52.0,51.0,30.11,NNW,338,0.0,0.0,95,0.00,,,0.08,,2013-03-29 10:02:00,
2013-03-29 03:11:00,52.0,51.0,30.11,NNW,338,0.0,0.0,95,0.00,,,0.08,,2013-03-29 10:11:00,
2013-03-29 03:22:00,51.0,50.0,30.10,NNW,338,0.0,0.0,96,0.00,,,0.08,,2013-03-29 10:22:00,
2013-03-29 03:32:00,51.0,50.0,30.09,ENE,71,0.0,0.0,96,0.00,,,0.08,,2013-03-29 10:32:00,
2013-03-29 03:42:00,51.0,50.0,30.09,ENE,71,0.0,0.0,96,0.00,,,0.08,,2013-03-29 10:42:00,
2013-03-29 03:53:00,50.0,49.0,30.11,WSW,241,3.0,4.0,97,0.00,,,0.08,,2013-03-29 10:53:00,
2013-03-29 04:02:00,50.0,49.0,30.11,West,274,0.0,0.0,96,0.00,,,0.07,,2013-03-29 11:02:00,
2013-03-29 04:11:00,50.0,49.0,30.11,West,274,0.0,0.0,96,0.00,,,0.07,,2013-03-29 11:11:00,
2013-03-29 04:22:00,50.0,49.0,30.11,South,170,0.0,0.0,96,0.00,,,0.06,,2013-03-29 11:22:00,
2013-03-29 04:32:00,50.0,49.0,30.11,ENE,71,0.0,0.0,96,0.00,,,0.05,,2013-03-29 11:32:00,
2013-03-29 04:42:00,50.0,49.0,30.11,ENE,71,0.0,0.0,96,0.00,,,0.05,,2013-03-29 11:42:00,
2013-03-29 04:52:00,50.0,49.0,30.12,ENE,71,0.0,0.0,96,0.00,,,0.04,,2013-03-29 11:52:00,
2013-03-29 05:01:00,50.0,49.0,30.12,ENE,71,0.0,0.0,96,0.00,,,0.03,,2013-03-29 12:01:00,
2013-03-29 05:11:00,50.0,49.0,30.12,ENE,71,0.0,0.0,96,0.00,,,0.03,,2013-03-29 12:11:00,
2013-03-29 05:22:00,50.0,49.0,30.13,ENE,71,0.0,0.0,97,0.00,,,0.03,,2013-03-29 12:22:00,
2013-03-29 05:32:00,50.0,49.0,30.13,ENE,71,0.0,0.0,97,0.00,,,0.02,,2013-03-29 12:32:00,
2013-03-29 05:42:00,50.0,49.0,30.13,ENE,71,0.0,0.0,97,0.00,,,0.02,,2013-03-29 12:42:00,
2013-03-29 05:51:00,50.0,49.0,30.13,ENE,71,0.0,0.0,97,0.00,,,0.02,,2013-03-29 12:51:00,
2013-03-29 06:02:00,50.0,49.0,30.13,ENE,71,0.0,0.0,97,0.00,,,0.02,,2013-03-29 13:02:00,
2013-03-29 06:11:00,50.0,49.0,30.13,ENE,71,0.0,0.0,97,0.00,,,0.02,,2013-03-29 13:11:00,
2013-03-29 06:21:00,50.0,49.0,30.13,North,9,0.0,0.0,97,0.00,,,0.02,,2013-03-29 13:21:00,
2013-03-29 06:31:00,50.0,49.0,30.13,NNW,343,0.0,0.0,97,0.00,,,0.02,,2013-03-29 13:31:00,
2013-03-29 06:42:00,50.0,49.0,30.13,NNW,343,0.0,0.0,97,0.00,,,0.02,,2013-03-29 13:42:00,
2013-03-29 06:52:00,49.0,48.0,30.14,North,352,2.0,2.0,97,0.00,,,0.01,,2013-03-29 13:52:00,
2013-03-29 07:02:00,50.0,49.0,30.14,NW,318,0.0,0.0,97,0.00,,,0.00,,2013-03-29 14:02:00,
2013-03-29 07:11:00,50.0,49.0,30.14,NW,318,0.0,0.0,97,0.00,,,0.00,,2013-03-29 14:11:00,
2013-03-29 07:21:00,50.0,49.0,30.14,NW,318,0.0,0.0,97,0.00,,,0.00,,2013-03-29 14:21:00,
2013-03-29 07:32:00,50.0,49.0,30.14,NW,318,0.0,0.0,96,0.00,,,0.00,,2013-03-29 14:32:00,
2013-03-29 07:42:00,50.0,49.0,30.14,NW,318,0.0,0.0,96,0.00,,,0.00,,2013-03-29 14:42:00,
2013-03-29 07:52:00,50.0,49.0,30.14,NW,318,0.0,0.0,96,0.00,,,0.00,,2013-03-29 14:52:00,
2013-03-29 08:02:00,50.0,49.0,30.14,NW,318,0.0,0.0,96,0.00,,,0.00,,2013-03-29 15:02:00,
2013-03-29 08:11:00,50.0,49.0,30.14,NW,318,0.0,0.0,96,0.00,,,0.00,,2013-03-29 15:11:00,
2013-03-29 08:22:00,50.0,49.0,30.15,NW,318,0.0,0.0,96,0.00,,,0.00,,2013-03-29 15:22:00,
2013-03-29 08:32:00,50.0,49.0,30.15,NW,318,0.0,0.0,96,0.00,,,0.00,,2013-03-29 15:32:00,
2013-03-29 08:42:00,50.0,49.0,30.15,NW,318,0.0,0.0,96,0.00,,,0.00,,2013-03-29 15:42:00,
2013-03-29 08:53:00,50.0,49.0,30.14,NW,318,0.0,0.0,96,0.00,,,0.00,,2013-03-29 15:53:00,
2013-03-29 09:02:00,51.0,50.0,30.14,NW,318,0.0,0.0,96,0.00,,,0.00,,2013-03-29 16:02:00,
2013-03-29 09:12:00,51.0,50.0,30.14,NW,318,0.0,0.0,96,0.00,,,0.00,,2013-03-29 16:12:00,
2013-03-29 09:22:00,51.0,50.0,30.15,NW,318,0.0,0.0,95,0.00,,,0.00,,2013-03-29 16:22:00,
2013-03-29 09:32:00,52.0,51.0,30.15,NW,318,0.0,0.0,95,0.00,,,0.00,,2013-03-29 16:32:00,
2013-03-29 09:42:00,52.0,51.0,30.15,NW,318,0.0,0.0,95,0.00,,,0.00,,2013-03-29 16:42:00,
2013-03-29 09:52:00,52.0,50.0,30.15,NW,318,0.0,0.0,94,0.00,,,0.00,,2013-03-29 16:52:00,
2013-03-29 10:02:00,53.0,51.0,30.15,NW,318,0.0,0.0,93,0.00,,,0.00,,2013-03-29 17:02:00,
2013-03-29 10:11:00,53.0,51.0,30.15,NW,318,0.0,0.0,93,0.00,,,0.00,,2013-03-29 17:11:00,
2013-03-29 10:22:00,53.0,51.0,30.15,NW,318,0.0,0.0,93,0.00,,,0.00,,2013-03-29 17:22:00,
2013-03-29 10:32:00,54.0,52.0,30.15,WNW,285,1.0,2.0,92,0.00,,,0.00,,2013-03-29 17:32:00,
2013-03-29 10:41:00,54.0,52.0,30.15,WNW,285,1.0,2.0,92,0.00,,,0.00,,2013-03-29 17:41:00,
2013-03-29 10:52:00,54.0,52.0,30.15,NNE,22,0.0,2.0,92,0.00,,,0.00,,2013-03-29 17:52:00,
2013-03-29 11:01:00,55.0,52.0,30.15,North,358,3.0,4.0,90,0.00,,,0.00,,2013-03-29 18:01:00,
2013-03-29 11:11:00,55.0,52.0,30.15,North,358,3.0,4.0,90,0.00,,,0.00,,2013-03-29 18:11:00,
2013-03-29 11:22:00,55.0,52.0,30.15,ESE,111,3.0,3.0,88,0.00,,,0.00,,2013-03-29 18:22:00,
2013-03-29 11:32:00,56.0,52.0,30.16,West,273,2.0,2.0,86,0.00,,,0.00,,2013-03-29 18:32:00,
2013-03-29 11:42:00,56.0,52.0,30.16,West,273,2.0,2.0,86,0.00,,,0.00,,2013-03-29 18:42:00,
2013-03-29 11:52:00,58.0,53.0,30.15,North,353,3.0,4.0,83,0.00,,,0.00,,2013-03-29 18:52:00,
2013-03-29 12:02:00,59.0,52.0,30.15,NW,309,1.0,5.0,79,0.00,,,0.00,,2013-03-29 19:02:00,
2013-03-29 12:11:00,60.0,54.0,30.15,NNW,345,6.0,7.0,81,0.00,,,0.00,,2013-03-29 19:11:00,
2013-03-29 12:22:00,60.0,54.0,30.15,NNW,345,6.0,7.0,81,0.00,,,0.00,,2013-03-29 19:22:00,
2013-03-29 12:31:00,59.0,53.0,30.15,NE,37,5.0,10.0,80,0.00,,,0.00,,2013-03-29 19:31:00,
2013-03-29 12:42:00,59.0,53.0,30.15,NE,37,5.0,10.0,80,0.00,,,0.00,,2013-03-29 19:42:00,
2013-03-29 12:52:00,60.0,54.0,30.15,NNE,13,2.0,2.0,81,0.00,,,0.00,,2013-03-29 19:52:00,
2013-03-29 13:02:00,59.0,54.0,30.14,NNW,343,4.0,5.0,82,0.00,,,0.00,,2013-03-29 20:02:00,
2013-03-29 13:11:00,59.0,54.0,30.14,NNW,343,4.0,5.0,82,0.00,,,0.00,,2013-03-29 20:11:00,
2013-03-29 13:21:00,60.0,54.0,30.14,NNE,24,3.0,7.0,80,0.00,,,0.00,,2013-03-29 20:21:00,
2013-03-29 13:31:00,61.0,54.0,30.13,NW,316,2.0,4.0,77,0.00,,,0.00,,2013-03-29 20:31:00,
2013-03-29 13:41:00,61.0,54.0,30.13,NW,316,2.0,4.0,77,0.00,,,0.00,,2013-03-29 20:41:00,
2013-03-29 13:52:00,61.0,54.0,30.13,NNW,339,5.0,7.0,78,0.00,,,0.00,,2013-03-29 20:52:00,
2013-03-29 14:01:00,61.0,53.0,30.12,North,11,5.0,7.0,76,0.00,,,0.00,,2013-03-29 21:01:00,
2013-03-29 14:11:00,61.0,53.0,30.12,North,11,5.0,7.0,76,0.00,,,0.00,,2013-03-29 21:11:00,
2013-03-29 14:21:00,62.0,55.0,30.12,North,358,4.0,6.0,77,0.00,,,0.00,,2013-03-29 21:21:00,
2013-03-29 14:32:00,62.0,54.0,30.12,North,357,5.0,9.0,76,0.00,,,0.00,,2013-03-29 21:32:00,
2013-03-29 14:42:00,62.0,54.0,30.12,North,357,5.0,9.0,76,0.00,,,0.00,,2013-03-29 21:42:00,
2013-03-29 14:53:00,63.0,55.0,30.11,NNW,328,4.0,6.0,76,0.00,,,0.00,,2013-03-29 21:53:00,
2013-03-29 15:02:00,63.0,55.0,30.11,North,1,6.0,6.0,74,0.00,,,0.00,,2013-03-29 22:02:00,
2013-03-29 15:12:00,63.0,55.0,30.11,North,1,6.0,6.0,74,0.00,,,0.00,,2013-03-29 22:12:00,
2013-03-29 15:22:00,63.0,55.0,30.10,NNW,338,5.0,8.0,74,0.00,,,0.00,,2013-03-29 22:22:00,
2013-03-29 15:32:00,64.0,55.0,30.10,NNW,339,5.0,6.0,72,0.00,,,0.00,,2013-03-29 22:32:00,
2013-03-29 15:42:00,64.0,55.0,30.10,NNW,339,5.0,6.0,72,0.00,,,0.00,,2013-03-29 22:42:00,
2013-03-29 15:53:00,64.0,55.0,30.10,NW,304,3.0,6.0,73,0.00,,,0.00,,2013-03-29 22:53:00,
2013-03-29 16:02:00,64.0,54.0,30.09,North,352,2.0,2.0,71,0.00,,,0.00,,2013-03-29 23:02:00,
2013-03-29 16:11:00,64.0,54.0,30.09,North,352,2.0,2.0,71,0.00,,,0.00,,2013-03-29 23:11:00,
2013-03-29 16:22:00,65.0,55.0,30.09,NNW,340,5.0,6.0,71,0.00,,,0.00,,2013-03-29 23:22:00,
2013-03-29 16:31:00,65.0,55.0,30.09,North,0,4.0,7.0,69,0.00,,,0.00,,2013-03-29 23:31:00,
2013-03-29 16:41:00,65.0,55.0,30.09,North,0,4.0,7.0,69,0.00,,,0.00,,2013-03-29 23:41:00,
2013-03-29 16:52:00,66.0,55.0,30.08,NNE,17,5.0,10.0,67,0.00,,,0.00,,2013-03-29 23:52:00,
2013-03-29 17:02:00,66.0,55.0,30.08,NNW,348,5.0,8.0,68,0.00,,,0.00,,2013-03-30 00:02:00,
2013-03-29 17:11:00,66.0,55.0,30.08,NNW,348,5.0,8.0,68,0.00,,,0.00,,2013-03-30 00:11:00,
2013-03-29 17:21:00,66.0,54.0,30.08,North,3,3.0,8.0,66,0.00,,,0.00,,2013-03-30 00:21:00,
2013-03-29 17:31:00,66.0,55.0,30.08,NW,322,4.0,7.0,68,0.00,,,0.00,,2013-03-30 00:31:00,
2013-03-29 17:42:00,66.0,55.0,30.08,NW,322,4.0,7.0,68,0.00,,,0.00,,2013-03-30 00:42:00,
2013-03-29 17:52:00,65.0,54.0,30.07,NNW,343,7.0,12.0,68,0.00,,,0.00,,2013-03-30 00:52:00,
2013-03-29 18:01:00,65.0,54.0,30.07,NNW,340,6.0,10.0,67,0.00,,,0.00,,2013-03-30 01:01:00,
2013-03-29 18:11:00,65.0,54.0,30.07,NNW,340,6.0,10.0,67,0.00,,,0.00,,2013-03-30 01:11:00,
2013-03-29 18:22:00,65.0,54.0,30.07,North,0,6.0,11.0,68,0.00,,,0.00,,2013-03-30 01:22:00,
2013-03-29 18:31:00,65.0,55.0,30.06,NNW,336,4.0,8.0,69,0.00,,,0.00,,2013-03-30 01:31:00,
2013-03-29 18:42:00,65.0,55.0,30.06,NNW,336,4.0,8.0,69,0.00,,,0.00,,2013-03-30 01:42:00,
2013-03-29 18:52:00,64.0,54.0,30.07,North,2,3.0,8.0,71,0.00,,,0.00,,2013-03-30 01:52:00,
2013-03-29 19:01:00,64.0,54.0,30.07,North,354,6.0,8.0,70,0.00,,,0.00,,2013-03-30 02:01:00,
2013-03-29 19:11:00,64.0,54.0,30.07,North,354,6.0,8.0,70,0.00,,,0.00,,2013-03-30 02:11:00,
2013-03-29 19:21:00,64.0,54.0,30.06,NW,325,4.0,5.0,71,0.00,,,0.00,,2013-03-30 02:21:00,
2013-03-29 19:32:00,63.0,55.0,30.06,NNW,339,3.0,6.0,74,0.00,,,0.00,,2013-03-30 02:32:00,
2013-03-29 19:42:00,63.0,55.0,30.06,NNW,339,3.0,6.0,74,0.00,,,0.00,,2013-03-30 02:42:00,
2013-03-29 19:52:00,62.0,54.0,30.06,North,353,3.0,6.0,75,0.00,,,0.00,,2013-03-30 02:52:00,
2013-03-29 20:01:00,61.0,54.0,30.07,NNW,338,3.0,5.0,78,0.00,,,0.00,,2013-03-30 03:01:00,
2013-03-29 20:11:00,61.0,55.0,30.07,North,350,4.0,4.0,80,0.00,,,0.00,,2013-03-30 03:11:00,
2013-03-29 20:21:00,61.0,55.0,30.07,North,350,4.0,4.0,80,0.00,,,0.00,,2013-03-30 03:21:00,
2013-03-29 20:32:00,60.0,54.0,30.08,NNW,336,3.0,5.0,81,0.00,,,0.00,,2013-03-30 03:32:00,
2013-03-29 20:43:00,60.0,54.0,30.08,NNW,336,3.0,5.0,81,0.00,,,0.00,,2013-03-30 03:43:00,
2013-03-29 20:53:00,59.0,54.0,30.09,NNW,344,3.0,4.0,83,0.00,,,0.00,,2013-03-30 03:53:00,
2013-03-29 21:02:00,59.0,54.0,30.09,NW,315,2.0,2.0,84,0.00,,,0.00,,2013-03-30 04:02:00,
2013-03-29 21:12:00,59.0,54.0,30.09,NW,315,2.0,2.0,84,0.00,,,0.00,,2013-03-30 04:12:00,
2013-03-29 21:22:00,58.0,54.0,30.10,WNW,298,0.0,1.0,85,0.00,,,0.00,,2013-03-30 04:22:00,
2013-03-29 21:32:00,58.0,54.0,30.11,NW,317,1.0,1.0,86,0.00,,,0.00,,2013-03-30 04:32:00,
2013-03-29 21:42:00,58.0,54.0,30.11,NW,317,1.0,1.0,86,0.00,,,0.00,,2013-03-30 04:42:00,
2013-03-29 21:52:00,55.0,51.0,30.11,SE,129,0.0,0.0,86,0.00,,,0.00,,2013-03-30 04:52:00,
2013-03-29 22:02:00,54.0,51.0,30.11,SE,129,0.0,0.0,89,0.00,,,0.00,,2013-03-30 05:02:00,
2013-03-29 22:12:00,54.0,51.0,30.11,SE,129,0.0,0.0,89,0.00,,,0.00,,2013-03-30 05:12:00,
2013-03-29 22:22:00,54.0,51.0,30.12,SE,129,0.0,0.0,89,0.00,,,0.00,,2013-03-30 05:22:00,
2013-03-29 22:32:00,53.0,50.0,30.13,SSE,168,0.0,0.0,91,0.00,,,0.00,,2013-03-30 05:32:00,
2013-03-29 22:42:00,53.0,50.0,30.13,SSE,168,0.0,0.0,91,0.00,,,0.00,,2013-03-30 05:42:00,
2013-03-29 22:52:00,53.0,51.0,30.14,SSE,168,0.0,0.0,92,0.00,,,0.00,,2013-03-30 05:52:00,
2013-03-29 23:01:00,52.0,50.0,30.14,SSE,168,0.0,0.0,93,0.00,,,0.00,,2013-03-30 06:01:00,
2013-03-29 23:11:00,52.0,50.0,30.14,SSE,168,0.0,0.0,93,0.00,,,0.00,,2013-03-30 06:11:00,
2013-03-29 23:22:00,51.0,49.0,30.14,SSE,168,0.0,0.0,93,0.00,,,0.00,,2013-03-30 06:22:00,
2013-03-29 23:31:00,50.0,48.0,30.14,SSE,168,0.0,0.0,94,0.00,,,0.00,,2013-03-30 06:31:00,
2013-03-29 23:41:00,50.0,48.0,30.14,SSE,168,0.0,0.0,94,0.00,,,0.00,,2013-03-30 06:41:00,
2013-03-29 23:52:00,50.0,48.0,30.14,SSE,168,0.0,0.0,94,0.00,,,0.00,,2013-03-30 06:52:00,